Lexington, South Carolina
Current Conditions -  °F | °C
As of 12:56 PM on Thursday 29 Jan 2015 (Local Time) from KCAE Reporting Station
Broken Clouds Broken Clouds  
Wind Chill: 52°   Ceiling: 13000
Heat Index: 52°   Visibility: 10mi
Dew Point: 22°   Wind: 10mph
Humidity: 31%   Direction: 190°S
Pressure: 30.27"   Gusts: NA
Location:  33.99°N, 81.23°W
Report Text: KCAE 291756Z 19009KT 10SM BKN130 BKN220 11/M06 A3027 RMK AO2 SLP252 T01111056 10111 21033 58029
Loading
Personal Weather Stations






























Interactive Weather Map New forecast layout! Learn more

10-Day Weather Forecast

Advertisements
Track Severe Weather on mobile